createdAt,value
2019-03-03T00:01:19.602Z,101071.84
2019-03-03T00:03:49.022Z,101064.59
2019-03-03T00:06:18.428Z,101060.42
2019-03-03T00:08:47.845Z,101054.45
2019-03-03T00:11:17.281Z,101060.63
2019-03-03T00:13:46.716Z,101055.20
2019-03-03T00:16:16.156Z,101045.25
2019-03-03T00:18:45.549Z,101042.66
2019-03-03T00:21:15.272Z,101053.87
2019-03-03T00:23:44.664Z,101045.49
2019-03-03T00:26:14.163Z,101050.28
2019-03-03T00:28:43.572Z,101051.56
2019-03-03T00:31:15.931Z,101036.74
2019-03-03T00:33:45.321Z,101034.27
2019-03-03T00:36:14.731Z,101043.66
2019-03-03T00:38:48.409Z,101035.98
2019-03-03T00:41:22.166Z,101026.34
2019-03-03T00:43:53.214Z,101017.62
2019-03-03T00:46:26.778Z,101020.53
2019-03-03T00:49:15.925Z,101017.97
2019-03-03T00:51:46.998Z,101009.33
2019-03-03T00:54:32.641Z,101013.53
2019-03-03T00:57:09.309Z,101023.40
2019-03-03T00:59:43.020Z,101018.67
2019-03-03T01:02:14.118Z,101010.77
2019-03-03T01:05:01.045Z,101013.38
2019-03-03T01:07:47.891Z,101024.81
2019-03-03T01:10:24.720Z,101026.98
2019-03-03T01:12:55.868Z,101021.38
2019-03-03T01:15:30.380Z,101025.03
2019-03-03T01:18:01.431Z,101012.39
2019-03-03T01:20:32.650Z,101008.17
2019-03-03T01:23:19.321Z,101000.42
2019-03-03T01:25:48.743Z,100994.21
2019-03-03T01:28:18.154Z,100995.46
2019-03-03T01:30:47.827Z,100999.04
2019-03-03T01:33:17.246Z,100997.72
2019-03-03T01:35:46.645Z,100991.79
2019-03-03T01:38:16.075Z,100984.28
2019-03-03T01:40:45.474Z,100979.20
2019-03-03T01:43:14.895Z,100976.09
2019-03-03T01:45:44.338Z,100974.58
2019-03-03T01:48:13.762Z,100981.91
2019-03-03T01:50:43.219Z,100985.27
2019-03-03T01:53:12.657Z,100992.30
2019-03-03T01:55:42.349Z,100980.34
2019-03-03T01:58:11.917Z,100981.67
2019-03-03T02:00:41.559Z,100976.45
2019-03-03T02:03:10.962Z,100962.79
2019-03-03T02:05:40.481Z,100962.20
2019-03-03T02:08:09.883Z,100964.16
2019-03-03T02:10:39.281Z,100959.34
2019-03-03T02:13:08.780Z,100962.99
2019-03-03T02:15:38.465Z,100961.36
2019-03-03T02:18:07.972Z,100960.37
2019-03-03T02:20:37.373Z,100959.51
2019-03-03T02:23:06.843Z,100952.14
2019-03-03T02:25:36.269Z,100956.80
2019-03-03T02:28:06.041Z,100955.16
2019-03-03T02:30:35.628Z,100952.88
2019-03-03T02:33:05.209Z,100956.47
2019-03-03T02:35:34.651Z,100958.93
2019-03-03T02:38:04.123Z,100950.40
2019-03-03T02:40:33.544Z,100933.56
2019-03-03T02:43:03.024Z,100936.50
2019-03-03T02:45:32.428Z,100922.84
2019-03-03T02:48:01.884Z,100925.20
2019-03-03T02:50:31.293Z,100919.26
2019-03-03T02:53:00.690Z,100921.52
2019-03-03T02:55:30.109Z,100906.98
2019-03-03T02:57:59.516Z,100906.86
2019-03-03T03:00:29.096Z,100911.63
2019-03-03T03:03:00.131Z,100908.08
2019-03-03T03:05:31.180Z,100896.25
2019-03-03T03:08:02.222Z,100888.52
2019-03-03T03:10:45.174Z,100891.76
2019-03-03T03:13:32.058Z,100883.12
2019-03-03T03:16:19.097Z,100870.17
2019-03-03T03:18:50.164Z,100872.26
2019-03-03T03:21:23.858Z,100870.58
2019-03-03T03:24:12.518Z,100869.41
2019-03-03T03:26:49.299Z,100849.12
2019-03-03T03:29:20.365Z,100852.70
2019-03-03T03:31:57.045Z,100847.00
2019-03-03T03:38:24.648Z,100850.42
2019-03-03T03:41:04.562Z,100846.29
2019-03-03T03:43:53.079Z,100838.69
2019-03-03T03:46:32.770Z,100837.05
2019-03-03T03:49:19.693Z,100830.13
2019-03-03T03:51:56.207Z,100834.53
2019-03-03T03:54:27.364Z,100837.28
2019-03-03T03:57:01.344Z,100833.72
2019-03-03T03:59:32.506Z,100837.57
2019-03-03T04:02:09.179Z,100840.63
2019-03-03T04:04:43.108Z,100836.83
2019-03-03T04:07:26.570Z,100840.79
2019-03-03T04:09:57.716Z,100834.94
2019-03-03T04:12:31.452Z,100839.98
2019-03-03T04:15:08.268Z,100831.83
2019-03-03T04:17:44.833Z,100834.69
2019-03-03T04:20:21.869Z,100837.13
2019-03-03T04:22:52.957Z,100836.47
2019-03-03T04:25:29.836Z,100832.07
2019-03-03T04:28:09.363Z,100828.91
2019-03-03T04:30:40.457Z,100829.16
2019-03-03T04:33:26.522Z,100828.64
2019-03-03T04:36:00.331Z,100824.23
2019-03-03T04:38:31.415Z,100815.50
2019-03-03T04:41:18.322Z,100812.24
2019-03-03T04:43:55.720Z,100797.99
2019-03-03T04:46:29.834Z,100815.45
2019-03-03T04:49:17.146Z,100806.41
2019-03-03T04:51:50.871Z,100809.89
2019-03-03T04:54:27.683Z,100808.59
2019-03-03T04:56:58.795Z,100804.51
2019-03-03T04:59:32.311Z,100804.05
2019-03-03T05:02:19.099Z,100805.81
2019-03-03T05:04:56.500Z,100804.52
2019-03-03T05:07:33.596Z,100802.39
2019-03-03T05:10:14.198Z,100795.16
2019-03-03T05:12:54.396Z,100805.01
2019-03-03T05:15:25.464Z,100794.91
2019-03-03T05:17:59.063Z,100790.19
2019-03-03T05:20:30.239Z,100787.31
2019-03-03T05:22:59.683Z,100791.22
2019-03-03T05:25:29.118Z,100782.31
2019-03-03T05:27:58.551Z,100794.31
2019-03-03T05:30:27.967Z,100784.55
2019-03-03T05:32:57.414Z,100788.30
2019-03-03T05:35:26.830Z,100782.89
2019-03-03T05:37:56.241Z,100783.45
2019-03-03T05:40:25.750Z,100782.41
2019-03-03T05:42:55.172Z,100782.24
2019-03-03T05:45:24.628Z,100783.34
2019-03-03T05:47:54.047Z,100787.59
2019-03-03T05:50:23.499Z,100784.48
2019-03-03T05:52:53.360Z,100774.79
2019-03-03T05:55:22.843Z,100777.14
2019-03-03T05:57:52.298Z,100775.16
2019-03-03T06:00:21.727Z,100767.36
2019-03-03T06:02:51.185Z,100771.82
2019-03-03T06:05:20.629Z,100769.28
2019-03-03T06:07:50.118Z,100768.98
2019-03-03T06:10:19.736Z,100764.64
2019-03-03T06:12:49.165Z,100768.87
2019-03-03T06:15:18.620Z,100759.17
2019-03-03T06:17:48.040Z,100769.44
2019-03-03T06:20:17.813Z,100759.55
2019-03-03T06:22:47.241Z,100762.64
2019-03-03T06:25:16.733Z,100753.59
2019-03-03T06:27:46.185Z,100754.27
2019-03-03T06:30:16.442Z,100754.12
2019-03-03T06:32:46.071Z,100754.59
2019-03-03T06:35:15.550Z,100754.31
2019-03-03T06:37:45.166Z,100743.77
2019-03-03T06:40:14.778Z,100743.52
2019-03-03T06:42:44.186Z,100751.05
2019-03-03T06:45:14.705Z,100754.70
2019-03-03T06:47:44.141Z,100745.17
2019-03-03T06:50:14.482Z,100752.50
2019-03-03T06:52:44.139Z,100748.45
2019-03-03T06:55:13.823Z,100737.11
2019-03-03T06:57:43.705Z,100745.81
2019-03-03T07:00:16.636Z,100746.95
2019-03-03T07:02:46.065Z,100738.97
2019-03-03T07:05:15.513Z,100739.23
2019-03-03T07:07:44.968Z,100748.75
2019-03-03T07:10:15.044Z,100734.20
2019-03-03T07:12:44.538Z,100738.05
2019-03-03T07:15:18.541Z,100736.42
2019-03-03T07:17:48.017Z,100738.63
2019-03-03T07:20:17.433Z,100749.97
2019-03-03T07:22:46.889Z,100750.56
2019-03-03T07:25:16.319Z,100754.29
2019-03-03T07:27:45.839Z,100745.86
2019-03-03T07:30:18.401Z,100748.75
2019-03-03T07:32:49.542Z,100749.73
2019-03-03T07:35:18.989Z,100754.92
2019-03-03T07:37:48.416Z,100750.11
2019-03-03T07:40:17.873Z,100757.47
2019-03-03T07:42:47.598Z,100755.32
2019-03-03T07:45:17.162Z,100762.19
2019-03-03T07:47:46.619Z,100756.88
2019-03-03T07:50:16.547Z,100760.14
2019-03-03T07:52:46.075Z,100760.14
2019-03-03T07:55:15.554Z,100769.17
2019-03-03T07:57:46.839Z,100762.23
2019-03-03T08:00:17.286Z,100768.30
2019-03-03T08:02:47.081Z,100758.56
2019-03-03T08:05:16.894Z,100764.62
2019-03-03T08:07:46.383Z,100761.07
2019-03-03T08:10:16.767Z,100758.57
2019-03-03T08:12:46.215Z,100769.18
2019-03-03T08:15:19.855Z,100769.48
2019-03-03T08:17:49.278Z,100769.42
2019-03-03T08:20:19.073Z,100780.19
2019-03-03T08:22:48.533Z,100788.57
2019-03-03T08:25:17.965Z,100779.88
2019-03-03T08:27:47.384Z,100787.38
2019-03-03T08:30:19.269Z,100780.59
2019-03-03T08:32:48.754Z,100792.28
2019-03-03T08:35:27.747Z,100797.80
2019-03-03T08:37:57.227Z,100797.49
2019-03-03T08:40:26.695Z,100793.59
2019-03-03T08:42:57.823Z,100794.39
2019-03-03T08:45:28.882Z,100797.56
2019-03-03T08:48:00.051Z,100789.67
2019-03-03T08:50:34.103Z,100782.05
2019-03-03T08:53:21.004Z,100778.00
2019-03-03T08:55:55.057Z,100790.77
2019-03-03T08:58:28.643Z,100774.30
2019-03-03T09:00:59.736Z,100782.37
2019-03-03T09:03:45.851Z,100773.61
2019-03-03T09:06:25.976Z,100767.66
2019-03-03T09:09:12.975Z,100758.14
2019-03-03T09:11:53.131Z,100753.15
2019-03-03T09:14:40.307Z,100752.28
2019-03-03T09:26:38.846Z,100751.44
2019-03-03T09:29:13.273Z,100753.02
2019-03-03T09:31:55.816Z,100752.16
2019-03-03T09:34:30.984Z,100748.15
2019-03-03T09:37:06.162Z,100753.38
2019-03-03T09:39:51.406Z,100745.00
2019-03-03T09:42:31.813Z,100754.58
2019-03-03T09:45:20.687Z,100750.98
2019-03-03T09:48:03.865Z,100753.42
2019-03-03T09:50:47.421Z,100750.89
2019-03-03T09:53:18.492Z,100747.62
2019-03-03T09:56:05.698Z,100741.47
2019-03-03T09:58:36.790Z,100739.23
2019-03-03T10:01:19.996Z,100736.84
2019-03-03T10:03:51.103Z,100726.83
2019-03-03T10:06:38.312Z,100734.90
2019-03-03T10:09:15.524Z,100728.48
2019-03-03T10:11:55.198Z,100735.05
2019-03-03T10:14:26.291Z,100731.94
2019-03-03T10:16:57.418Z,100730.98
2019-03-03T10:19:28.487Z,100724.34
2019-03-03T10:22:02.587Z,100723.56
2019-03-03T10:24:39.596Z,100716.69
2019-03-03T10:27:13.831Z,100708.17
2019-03-03T10:29:47.577Z,100708.29
2019-03-03T10:32:21.398Z,100713.20
2019-03-03T10:35:00.999Z,100701.81
2019-03-03T10:37:34.503Z,100702.25
2019-03-03T10:40:09.119Z,100706.26
2019-03-03T10:42:48.976Z,100709.61
2019-03-03T10:48:15.024Z,100687.31
2019-03-03T10:50:48.500Z,100697.83
2019-03-03T10:53:19.619Z,100691.66
2019-03-03T10:56:02.192Z,100690.68
2019-03-03T10:58:35.806Z,100686.56
2019-03-03T11:01:07.130Z,100684.84
2019-03-03T11:03:38.201Z,100683.14
2019-03-03T11:06:09.292Z,100682.41
2019-03-03T11:08:49.228Z,100679.55
2019-03-03T11:11:29.783Z,100679.92
2019-03-03T11:14:21.567Z,100682.91
2019-03-03T11:16:58.548Z,100671.73
2019-03-03T11:19:38.667Z,100675.20
2019-03-03T11:22:27.690Z,100667.53
2019-03-03T11:25:14.835Z,100664.95
2019-03-03T11:27:51.746Z,100680.32
2019-03-03T11:30:39.564Z,100658.42
2019-03-03T11:33:29.111Z,100661.69
2019-03-03T11:36:00.310Z,100658.79
2019-03-03T11:38:34.263Z,100659.31
2019-03-03T11:41:05.983Z,100656.71
2019-03-03T11:43:43.075Z,100649.03
2019-03-03T11:46:16.928Z,100660.18
2019-03-03T11:48:50.970Z,100651.88
2019-03-03T11:51:22.036Z,100650.13
2019-03-03T11:54:07.958Z,100642.77
2019-03-03T11:56:39.028Z,100643.63
2019-03-03T11:59:10.081Z,100633.69
2019-03-03T12:01:56.259Z,100633.66
2019-03-03T12:04:43.583Z,100634.50
2019-03-03T12:07:29.450Z,100626.04
2019-03-03T12:10:00.647Z,100620.02
2019-03-03T12:12:34.277Z,100614.50
2019-03-03T12:15:08.153Z,100611.26
2019-03-03T12:17:39.276Z,100605.20
2019-03-03T12:20:17.183Z,100603.11
2019-03-03T12:22:50.740Z,100599.11
2019-03-03T12:25:39.879Z,100597.61
2019-03-03T12:28:19.786Z,100589.46
2019-03-03T12:30:50.940Z,100590.27
2019-03-03T12:33:22.074Z,100586.02
2019-03-03T12:36:09.636Z,100579.02
2019-03-03T12:38:56.906Z,100572.42
2019-03-03T12:41:42.995Z,100559.27
2019-03-03T12:44:30.310Z,100566.05
2019-03-03T12:47:07.210Z,100570.02
2019-03-03T12:49:49.866Z,100561.63
2019-03-03T12:52:30.252Z,100563.24
2019-03-03T12:55:09.972Z,100561.23
2019-03-03T12:57:57.636Z,100550.90
2019-03-03T13:00:31.702Z,100552.40
2019-03-03T13:03:02.811Z,100533.95
2019-03-03T13:05:49.752Z,100528.97
2019-03-03T13:08:26.792Z,100530.80
2019-03-03T13:11:03.871Z,100519.50
2019-03-03T13:13:34.974Z,100516.70
2019-03-03T13:16:24.545Z,100513.12
2019-03-03T13:19:04.452Z,100508.55
2019-03-03T13:21:35.574Z,100496.09
2019-03-03T13:24:22.372Z,100501.48
2019-03-03T13:26:56.180Z,100486.92
2019-03-03T13:29:27.318Z,100485.78
2019-03-03T13:32:01.081Z,100479.89
2019-03-03T13:34:37.679Z,100478.78
2019-03-03T13:37:25.098Z,100483.85
2019-03-03T13:40:12.385Z,100470.92
2019-03-03T13:42:49.573Z,100470.30
2019-03-03T13:45:19.178Z,100466.84
2019-03-03T13:47:48.616Z,100461.78
2019-03-03T13:50:18.182Z,100450.46
2019-03-03T13:52:48.010Z,100449.34
2019-03-03T13:55:17.716Z,100449.34
2019-03-03T13:57:47.386Z,100453.11
2019-03-03T14:00:23.295Z,100444.41
2019-03-03T14:02:52.984Z,100441.81
2019-03-03T14:05:23.350Z,100439.67
2019-03-03T14:07:52.913Z,100429.51
2019-03-03T14:10:22.985Z,100424.60
2019-03-03T14:12:52.667Z,100415.25
2019-03-03T14:15:22.168Z,100414.76
2019-03-03T14:17:51.756Z,100401.52
2019-03-03T14:20:23.499Z,100408.72
2019-03-03T14:22:54.600Z,100401.84
2019-03-03T14:25:24.244Z,100406.11
2019-03-03T14:27:53.739Z,100401.03
2019-03-03T14:30:27.790Z,100392.84
2019-03-03T14:32:57.373Z,100390.37
2019-03-03T14:35:26.909Z,100392.17
2019-03-03T14:37:56.421Z,100393.34
2019-03-03T14:40:25.846Z,100390.04
2019-03-03T14:42:55.311Z,100377.11
2019-03-03T14:45:24.887Z,100376.61
2019-03-03T14:47:54.428Z,100369.23
2019-03-03T14:50:24.092Z,100363.33
2019-03-03T14:52:56.647Z,100361.86
2019-03-03T14:55:26.127Z,100348.62
2019-03-03T14:57:55.635Z,100348.78
2019-03-03T15:00:32.339Z,100341.55
2019-03-03T15:03:04.771Z,100337.45
2019-03-03T15:05:34.376Z,100327.32
2019-03-03T15:08:04.156Z,100330.09
2019-03-03T15:10:33.735Z,100316.02
2019-03-03T15:13:06.169Z,100312.08
2019-03-03T15:15:38.097Z,100305.70
2019-03-03T15:18:07.901Z,100306.66
2019-03-03T15:20:37.384Z,100296.05
2019-03-03T15:23:06.959Z,100297.82
2019-03-03T15:25:36.369Z,100288.98
2019-03-03T15:28:05.837Z,100279.67
2019-03-03T15:30:35.526Z,100268.03
2019-03-03T15:33:04.998Z,100263.09
2019-03-03T15:35:34.454Z,100255.72
2019-03-03T15:38:04.098Z,100248.85
2019-03-03T15:40:33.615Z,100241.96
2019-03-03T15:43:03.198Z,100239.01
2019-03-03T15:45:32.892Z,100227.23
2019-03-03T15:48:02.520Z,100222.83
2019-03-03T15:50:31.981Z,100214.62
2019-03-03T15:53:01.390Z,100209.89
2019-03-03T15:55:32.591Z,100196.80
2019-03-03T15:58:02.119Z,100196.33
2019-03-03T16:00:37.739Z,100191.24
2019-03-03T16:03:07.603Z,100193.69
2019-03-03T16:05:37.124Z,100189.45
2019-03-03T16:08:06.561Z,100187.66
2019-03-03T16:10:35.957Z,100184.20
2019-03-03T16:13:05.527Z,100184.69
2019-03-03T16:15:34.922Z,100175.03
2019-03-03T16:18:04.368Z,100173.06
2019-03-03T16:20:33.778Z,100161.44
2019-03-03T16:23:03.477Z,100153.58
2019-03-03T16:25:32.990Z,100152.59
2019-03-03T16:28:02.416Z,100150.47
2019-03-03T16:30:31.852Z,100139.67
2019-03-03T16:33:01.411Z,100147.36
2019-03-03T16:35:30.828Z,100138.03
2019-03-03T16:38:00.341Z,100136.89
2019-03-03T16:40:39.003Z,100127.37
2019-03-03T16:43:01.437Z,100144.42
2019-03-03T16:45:30.883Z,100137.36
2019-03-03T16:48:00.287Z,100134.25
2019-03-03T16:50:30.070Z,100121.80
2019-03-03T16:52:59.547Z,100119.20
2019-03-03T16:55:29.058Z,100123.28
2019-03-03T16:57:58.522Z,100123.34
2019-03-03T17:00:31.128Z,100125.33
2019-03-03T17:03:00.566Z,100112.23
2019-03-03T17:05:30.731Z,100108.34
2019-03-03T17:08:00.221Z,100101.31
2019-03-03T17:10:29.621Z,100102.64
2019-03-03T17:12:59.055Z,100104.80
2019-03-03T17:15:30.116Z,100103.17
2019-03-03T17:17:59.532Z,100102.36
2019-03-03T17:20:29.048Z,100101.37
2019-03-03T17:22:58.451Z,100097.13
2019-03-03T17:25:31.384Z,100095.31
2019-03-03T17:28:00.822Z,100100.88
2019-03-03T17:30:30.375Z,100069.51
2019-03-03T17:32:59.792Z,100055.45
2019-03-03T17:35:29.266Z,100057.07
2019-03-03T17:37:58.693Z,100062.28
2019-03-03T17:40:28.843Z,100057.70
2019-03-03T17:42:58.335Z,100058.17
2019-03-03T17:45:27.780Z,100041.16
2019-03-03T17:47:57.207Z,100056.88
2019-03-03T17:50:28.748Z,100042.66
2019-03-03T17:52:58.365Z,100027.27
2019-03-03T17:55:27.836Z,100029.53
2019-03-03T17:57:57.352Z,100019.08
2019-03-03T18:00:42.375Z,100021.19
2019-03-03T18:03:11.879Z,100023.47
2019-03-03T18:05:41.299Z,100008.09
2019-03-03T18:08:10.990Z,100017.88
2019-03-03T18:10:40.501Z,100017.88
2019-03-03T18:13:09.964Z,100008.23
2019-03-03T18:15:39.459Z,100010.84
2019-03-03T18:18:08.858Z,99999.72
2019-03-03T18:20:38.304Z,99995.48
2019-03-03T18:23:07.715Z,100006.73
2019-03-03T18:25:37.205Z,99985.98
2019-03-03T18:28:06.720Z,99972.41
2019-03-03T18:30:36.226Z,99982.68
2019-03-03T18:33:05.790Z,99988.09
2019-03-03T18:35:35.197Z,99959.28
2019-03-03T18:38:05.033Z,99961.25
2019-03-03T18:40:34.452Z,99946.22
2019-03-03T18:43:04.203Z,99956.53
2019-03-03T18:45:33.983Z,99939.19
2019-03-03T18:48:03.394Z,99935.43
2019-03-03T18:50:32.962Z,99947.36
2019-03-03T18:53:02.622Z,99945.56
2019-03-03T18:55:32.033Z,99960.28
2019-03-03T18:58:01.450Z,99954.73
2019-03-03T19:00:32.157Z,99948.33
2019-03-03T19:03:01.830Z,99924.25
2019-03-03T19:05:31.267Z,99918.50
2019-03-03T19:08:00.700Z,99915.73
2019-03-03T19:10:34.859Z,99911.16
2019-03-03T19:13:04.283Z,99913.34
2019-03-03T19:15:33.706Z,99912.50
2019-03-03T19:18:03.196Z,99911.97
2019-03-03T19:20:32.636Z,99905.27
2019-03-03T19:23:02.061Z,99904.27
2019-03-03T19:25:31.447Z,99905.06
2019-03-03T19:28:00.965Z,99913.06
2019-03-03T19:30:31.119Z,99909.33
2019-03-03T19:33:23.832Z,99902.92
2019-03-03T19:35:53.349Z,99892.00
2019-03-03T19:38:22.884Z,99874.67
2019-03-03T19:40:52.359Z,99881.59
2019-03-03T19:43:21.824Z,99889.57
2019-03-03T19:45:55.793Z,99880.75
2019-03-03T19:48:25.260Z,99884.84
2019-03-03T19:50:54.662Z,99887.73
2019-03-03T19:53:24.084Z,99863.54
2019-03-03T19:55:53.631Z,99844.83
2019-03-03T19:58:23.061Z,99854.94
2019-03-03T20:00:52.529Z,99863.77
2019-03-03T20:03:22.003Z,99848.07
2019-03-03T20:05:51.508Z,99854.73
2019-03-03T20:08:20.978Z,99861.96
2019-03-03T20:10:50.396Z,99848.89
2019-03-03T20:13:19.971Z,99845.30
2019-03-03T20:15:49.403Z,99839.55
2019-03-03T20:18:18.772Z,99833.85
2019-03-03T20:20:48.175Z,99824.83
2019-03-03T20:23:17.619Z,99816.47
2019-03-03T20:25:47.023Z,99819.14
2019-03-03T20:28:16.459Z,99811.94
2019-03-03T20:30:46.215Z,99807.51
2019-03-03T20:33:15.698Z,99799.52
2019-03-03T20:35:45.116Z,99804.75
2019-03-03T20:38:14.525Z,99803.93
2019-03-03T20:40:43.959Z,99802.45
2019-03-03T20:43:13.368Z,99794.63
2019-03-03T20:45:42.795Z,99783.50
2019-03-03T20:48:12.292Z,99780.90
2019-03-03T20:50:41.693Z,99772.41
2019-03-03T20:53:11.129Z,99758.53
2019-03-03T20:55:40.526Z,99748.86
2019-03-03T20:58:09.946Z,99735.31
2019-03-03T21:00:39.356Z,99707.27
2019-03-03T21:03:08.756Z,99670.50
2019-03-03T21:05:38.179Z,99698.94
2019-03-03T21:08:07.575Z,99716.95
2019-03-03T21:10:37.080Z,99691.48
2019-03-03T21:13:06.624Z,99674.58
2019-03-03T21:15:36.082Z,99667.20
2019-03-03T21:18:05.679Z,99675.38
2019-03-03T21:20:35.069Z,99682.92
2019-03-03T21:23:04.561Z,99667.04
2019-03-03T21:25:33.981Z,99675.30
2019-03-03T21:28:03.393Z,99661.05
2019-03-03T21:30:32.893Z,99657.95
2019-03-03T21:33:02.357Z,99661.66
2019-03-03T21:35:31.774Z,99661.80
2019-03-03T21:38:01.177Z,99660.05
2019-03-03T21:40:30.754Z,99652.39
2019-03-03T21:43:00.436Z,99665.30
2019-03-03T21:45:30.754Z,99666.41
2019-03-03T21:48:00.213Z,99661.34
2019-03-03T21:50:32.890Z,99642.05
2019-03-03T21:53:02.318Z,99631.96
2019-03-03T21:55:31.736Z,99637.89
2019-03-03T21:58:01.129Z,99626.30
2019-03-03T22:00:37.203Z,99614.27
2019-03-03T22:03:07.057Z,99620.31
2019-03-03T22:05:36.572Z,99599.28
2019-03-03T22:08:06.467Z,99608.78
2019-03-03T22:10:35.882Z,99613.98
2019-03-03T22:13:10.976Z,99624.79
2019-03-03T22:15:40.452Z,99622.29
2019-03-03T22:18:09.873Z,99621.00
2019-03-03T22:20:39.349Z,99597.27
2019-03-03T22:23:08.947Z,99604.82
2019-03-03T22:25:38.376Z,99604.63
2019-03-03T22:28:07.777Z,99599.30
2019-03-03T22:30:37.613Z,99591.10
2019-03-03T22:33:07.007Z,99603.77
2019-03-03T22:35:36.428Z,99599.86
2019-03-03T22:38:05.848Z,99592.88
2019-03-03T22:40:35.403Z,99611.67
2019-03-03T22:43:05.151Z,99598.58
2019-03-03T22:45:34.626Z,99579.47
2019-03-03T22:48:04.126Z,99581.53
2019-03-03T22:50:33.530Z,99581.69
2019-03-03T22:53:02.939Z,99574.32
2019-03-03T22:55:36.668Z,99574.14
2019-03-03T22:58:06.165Z,99583.80
2019-03-03T23:00:47.537Z,99547.08
2019-03-03T23:03:36.402Z,99549.35
2019-03-03T23:06:31.339Z,99551.13
2019-03-03T23:09:33.488Z,99540.70
2019-03-03T23:12:22.407Z,99535.66
2019-03-03T23:15:04.895Z,99527.56
2019-03-03T23:17:53.084Z,99543.45
2019-03-03T23:20:32.809Z,99522.67
2019-03-03T23:23:21.895Z,99510.75
2019-03-03T23:25:52.903Z,99505.44
2019-03-03T23:28:22.524Z,99473.36
2019-03-03T23:30:52.149Z,99477.59
2019-03-03T23:33:21.899Z,99493.94
2019-03-03T23:35:51.411Z,99502.61
2019-03-03T23:38:20.891Z,99499.48
2019-03-03T23:40:50.290Z,99490.18
2019-03-03T23:43:19.860Z,99489.10
2019-03-03T23:45:49.538Z,99477.73
2019-03-03T23:48:18.967Z,99477.56
2019-03-03T23:50:48.369Z,99477.20
2019-03-03T23:53:17.762Z,99457.11
2019-03-03T23:55:47.215Z,99432.09
2019-03-03T23:58:16.624Z,99447.15
